createdAt,value
2022-09-25T00:01:13.347Z,96178.84
2022-09-25T00:04:10.293Z,96181.19
2022-09-25T00:07:07.251Z,96186.44
2022-09-25T00:10:04.594Z,96187.88
2022-09-25T00:13:01.442Z,96186.38
2022-09-25T00:15:59.505Z,96178.06
2022-09-25T00:19:16.814Z,96184.09
2022-09-25T00:22:13.609Z,96182.84
2022-09-25T00:25:15.524Z,96174.25
2022-09-25T00:28:17.628Z,96174.34
2022-09-25T00:31:24.548Z,96175.66
2022-09-25T00:34:21.490Z,96176.81
2022-09-25T00:37:18.626Z,96164.94
2022-09-25T00:40:15.725Z,96173.06
2022-09-25T00:43:41.340Z,96166.63
2022-09-25T00:46:42.738Z,96165.06
2022-09-25T00:49:39.757Z,96167.94
2022-09-25T00:52:36.620Z,96164.19
2022-09-25T00:55:35.849Z,96174.06
2022-09-25T00:58:35.236Z,96163.19
2022-09-25T01:01:32.087Z,96162.00
2022-09-25T01:04:34.581Z,96164.66
2022-09-25T01:07:34.603Z,96166.25
2022-09-25T01:10:31.663Z,96163.69
2022-09-25T01:13:29.884Z,96167.63
2022-09-25T01:16:38.078Z,96162.56
2022-09-25T01:20:02.480Z,96165.84
2022-09-25T01:23:31.825Z,96172.16
2022-09-25T01:27:06.377Z,96176.31
2022-09-25T01:30:18.156Z,96171.38
2022-09-25T01:33:31.363Z,96166.31
2022-09-25T01:36:38.685Z,96164.09
2022-09-25T01:39:42.369Z,96161.03
2022-09-25T01:42:57.126Z,96170.13
2022-09-25T01:46:00.128Z,96177.34
2022-09-25T01:49:08.127Z,96172.72
2022-09-25T01:52:13.999Z,96169.69
2022-09-25T01:55:23.589Z,96164.84
2022-09-25T01:58:32.478Z,96156.81
2022-09-25T02:01:35.979Z,96155.91
2022-09-25T02:04:53.264Z,96156.94
2022-09-25T02:07:56.426Z,96152.75
2022-09-25T02:11:02.207Z,96153.72
2022-09-25T02:14:11.281Z,96150.16
2022-09-25T02:17:12.637Z,96136.91
2022-09-25T02:20:28.779Z,96139.66
2022-09-25T02:24:25.059Z,96135.22
2022-09-25T02:27:22.897Z,96139.56
2022-09-25T02:30:20.097Z,96135.81
2022-09-25T02:33:17.038Z,96146.81
2022-09-25T02:36:20.190Z,96138.81
2022-09-25T02:39:22.529Z,96141.84
2022-09-25T02:42:59.711Z,96132.97
2022-09-25T02:46:16.405Z,96142.53
2022-09-25T02:49:40.475Z,96131.69
2022-09-25T02:53:08.473Z,96127.69
2022-09-25T02:56:28.758Z,96132.19
2022-09-25T02:59:42.919Z,96132.84
2022-09-25T03:02:42.892Z,96128.78
2022-09-25T03:05:41.807Z,96123.94
2022-09-25T03:08:46.380Z,96134.06
2022-09-25T03:11:43.549Z,96123.97
2022-09-25T03:14:40.584Z,96123.75
2022-09-25T03:17:39.636Z,96115.66
2022-09-25T03:20:36.517Z,96122.16
2022-09-25T03:23:33.419Z,96115.59
2022-09-25T03:26:30.927Z,96121.13
2022-09-25T03:29:29.838Z,96120.22
2022-09-25T03:32:26.640Z,96117.16
2022-09-25T03:35:23.483Z,96113.41
2022-09-25T03:38:20.255Z,96123.91
2022-09-25T03:41:21.375Z,96121.13
2022-09-25T03:44:18.276Z,96120.72
2022-09-25T03:47:15.164Z,96113.38
2022-09-25T03:50:12.010Z,96120.59
2022-09-25T03:53:08.795Z,96111.91
2022-09-25T03:56:13.882Z,96123.13
2022-09-25T03:59:10.680Z,96120.78
2022-09-25T04:02:07.634Z,96116.06
2022-09-25T04:05:04.996Z,96115.56
2022-09-25T04:08:02.598Z,96109.44
2022-09-25T04:11:00.421Z,96114.16
2022-09-25T04:13:57.300Z,96123.50
2022-09-25T04:16:54.090Z,96115.38
2022-09-25T04:19:51.921Z,96121.88
2022-09-25T04:22:48.711Z,96112.91
2022-09-25T04:25:45.825Z,96108.66
2022-09-25T04:28:45.317Z,96105.13
2022-09-25T04:31:42.212Z,96119.59
2022-09-25T04:34:39.179Z,96106.56
2022-09-25T04:37:35.963Z,96106.22
2022-09-25T04:40:33.486Z,96108.94
2022-09-25T04:43:32.587Z,96121.38
2022-09-25T04:46:29.454Z,96114.50
2022-09-25T04:49:26.292Z,96122.88
2022-09-25T04:52:23.170Z,96115.19
2022-09-25T04:55:24.291Z,96116.66
2022-09-25T04:58:21.398Z,96123.19
2022-09-25T05:01:20.447Z,96121.38
2022-09-25T05:04:17.385Z,96120.97
2022-09-25T05:07:14.155Z,96120.78
2022-09-25T05:10:10.952Z,96123.31
2022-09-25T05:13:11.157Z,96114.66
2022-09-25T05:16:08.758Z,96120.47
2022-09-25T05:19:05.688Z,96119.41
2022-09-25T05:22:02.478Z,96115.38
2022-09-25T05:24:59.364Z,96109.78
2022-09-25T05:27:59.072Z,96109.47
2022-09-25T05:30:59.151Z,96109.09
2022-09-25T05:33:56.090Z,96110.16
2022-09-25T05:36:52.970Z,96100.31
2022-09-25T05:39:49.917Z,96104.03
2022-09-25T05:42:47.896Z,96101.59
2022-09-25T05:45:44.764Z,96108.44
2022-09-25T05:48:41.944Z,96097.34
2022-09-25T05:51:38.718Z,96099.53
2022-09-25T05:54:35.502Z,96096.94
2022-09-25T05:57:37.031Z,96094.91
2022-09-25T06:00:33.871Z,96102.13
2022-09-25T06:03:31.307Z,96103.13
2022-09-25T06:06:31.785Z,96099.56
2022-09-25T06:09:28.594Z,96092.53
2022-09-25T06:12:25.371Z,96094.38
2022-09-25T06:15:24.055Z,96090.91
2022-09-25T06:18:24.062Z,96093.63
2022-09-25T06:21:21.470Z,96083.63
2022-09-25T06:24:18.286Z,96092.09
2022-09-25T06:27:15.099Z,96095.09
2022-09-25T06:30:12.407Z,96095.22
2022-09-25T06:33:14.203Z,96094.94
2022-09-25T06:36:10.991Z,96102.06
2022-09-25T06:39:08.553Z,96099.69
2022-09-25T06:42:05.507Z,96097.81
2022-09-25T06:45:02.470Z,96104.09
2022-09-25T06:48:12.730Z,96102.91
2022-09-25T06:51:09.605Z,96096.19
2022-09-25T06:54:06.878Z,96100.75
2022-09-25T06:57:03.854Z,96099.66
2022-09-25T07:00:00.690Z,96112.22
2022-09-25T07:03:17.552Z,96102.66
2022-09-25T07:06:24.338Z,96111.38
2022-09-25T07:09:21.136Z,96118.63
2022-09-25T07:12:18.398Z,96119.91
2022-09-25T07:15:15.673Z,96116.13
2022-09-25T07:18:12.479Z,96115.19
2022-09-25T07:21:13.337Z,96115.69
2022-09-25T07:24:10.122Z,96113.19
2022-09-25T07:27:06.939Z,96112.53
2022-09-25T07:30:05.110Z,96113.03
2022-09-25T07:33:02.794Z,96113.06
2022-09-25T07:36:01.254Z,96114.16
2022-09-25T07:38:58.058Z,96115.09
2022-09-25T07:41:55.633Z,96103.28
2022-09-25T07:44:53.032Z,96108.91
2022-09-25T07:47:50.167Z,96111.88
2022-09-25T07:50:48.851Z,96107.41
2022-09-25T07:53:45.687Z,96097.88
2022-09-25T07:56:42.503Z,96099.81
2022-09-25T07:59:39.684Z,96099.59
2022-09-25T08:02:36.523Z,96096.03
2022-09-25T08:05:33.364Z,96086.56
2022-09-25T08:08:31.006Z,96086.28
2022-09-25T08:11:31.232Z,96084.09
2022-09-25T08:14:28.971Z,96080.03
2022-09-25T08:17:31.201Z,96081.16
2022-09-25T08:20:28.044Z,96080.50
2022-09-25T08:23:24.839Z,96090.16
2022-09-25T08:26:23.020Z,96087.44
2022-09-25T08:29:19.834Z,96087.00
2022-09-25T08:32:16.631Z,96082.53
2022-09-25T08:35:13.798Z,96081.75
2022-09-25T08:38:12.304Z,96081.38
2022-09-25T08:41:28.074Z,96083.00
2022-09-25T08:44:52.810Z,96088.88
2022-09-25T08:48:19.171Z,96092.19
2022-09-25T08:51:16.511Z,96081.78
2022-09-25T08:54:22.768Z,96088.97
2022-09-25T08:57:43.477Z,96092.50
2022-09-25T09:00:40.327Z,96096.69
2022-09-25T09:04:05.501Z,96093.50
2022-09-25T09:07:33.015Z,96088.72
2022-09-25T09:10:53.715Z,96084.75
2022-09-25T09:14:02.891Z,96081.03
2022-09-25T09:17:21.040Z,96082.97
2022-09-25T09:20:33.728Z,96075.66
2022-09-25T09:23:46.332Z,96069.28
2022-09-25T09:27:23.424Z,96070.28
2022-09-25T09:30:51.339Z,96079.03
2022-09-25T09:34:02.987Z,96076.88
2022-09-25T09:37:04.970Z,96074.31
2022-09-25T09:40:49.184Z,96070.50
2022-09-25T09:44:35.243Z,96066.13
2022-09-25T09:47:52.076Z,96069.16
2022-09-25T09:51:01.472Z,96069.47
2022-09-25T09:54:22.378Z,96075.16
2022-09-25T09:57:33.725Z,96067.25
2022-09-25T10:00:30.928Z,96072.41
2022-09-25T10:03:32.586Z,96068.78
2022-09-25T10:06:34.655Z,96061.34
2022-09-25T10:09:31.927Z,96063.75
2022-09-25T10:12:37.515Z,96056.00
2022-09-25T10:15:41.027Z,96052.25
2022-09-25T10:19:04.179Z,96051.53
2022-09-25T10:22:16.433Z,96049.78
2022-09-25T10:25:14.094Z,96044.66
2022-09-25T10:28:32.531Z,96045.22
2022-09-25T10:31:40.685Z,96048.00
2022-09-25T10:34:40.600Z,96038.53
2022-09-25T10:37:37.501Z,96039.72
2022-09-25T10:40:38.125Z,96035.38
2022-09-25T10:43:35.004Z,96032.84
2022-09-25T10:46:55.420Z,96028.31
2022-09-25T10:50:24.915Z,96028.31
2022-09-25T10:53:30.430Z,96030.31
2022-09-25T10:56:35.980Z,96031.91
2022-09-25T10:59:32.896Z,96025.91
2022-09-25T11:02:41.782Z,96029.81
2022-09-25T11:05:38.718Z,96032.81
2022-09-25T11:08:39.267Z,96033.59
2022-09-25T11:11:39.256Z,96045.59
2022-09-25T11:14:37.452Z,96046.16
2022-09-25T11:17:43.207Z,96045.72
2022-09-25T11:20:42.271Z,96034.63
2022-09-25T11:23:53.444Z,96028.78
2022-09-25T11:27:30.427Z,96023.16
2022-09-25T11:30:43.317Z,96041.69
2022-09-25T11:34:11.189Z,96024.94
2022-09-25T11:37:36.859Z,96034.84
2022-09-25T11:41:12.762Z,96031.47
2022-09-25T11:44:23.291Z,96035.28
2022-09-25T11:47:46.187Z,96038.97
2022-09-25T11:51:11.278Z,96039.53
2022-09-25T11:54:36.785Z,96030.47
2022-09-25T11:57:52.782Z,96016.06
2022-09-25T12:01:11.944Z,96025.75
2022-09-25T12:04:56.103Z,96019.34
2022-09-25T12:08:26.788Z,96018.44
2022-09-25T12:11:48.267Z,96012.28
2022-09-25T12:15:20.166Z,96012.16
2022-09-25T12:19:05.186Z,96004.50
2022-09-25T12:22:33.466Z,96007.94
2022-09-25T12:26:11.226Z,96004.19
2022-09-25T12:29:46.272Z,96010.25
2022-09-25T12:33:09.210Z,95999.47
2022-09-25T12:36:28.093Z,96012.03
2022-09-25T12:39:44.878Z,95997.44
2022-09-25T12:43:17.171Z,95998.44
2022-09-25T12:46:22.307Z,95998.09
2022-09-25T12:49:37.775Z,95994.34
2022-09-25T12:52:44.936Z,95984.84
2022-09-25T12:55:53.636Z,95974.84
2022-09-25T12:59:13.657Z,95973.75
2022-09-25T13:02:43.946Z,95979.41
2022-09-25T13:06:10.608Z,95975.84
2022-09-25T13:09:40.988Z,95976.28
2022-09-25T13:12:39.310Z,95983.13
2022-09-25T13:15:39.632Z,95981.22
2022-09-25T13:18:36.448Z,95977.31
2022-09-25T13:21:37.867Z,95974.16
2022-09-25T13:25:01.707Z,95978.66
2022-09-25T13:28:07.864Z,95971.03
2022-09-25T13:31:12.307Z,95972.84
2022-09-25T13:34:19.065Z,95972.84
2022-09-25T13:37:16.484Z,95975.31
2022-09-25T13:40:40.866Z,95965.06
2022-09-25T13:43:38.471Z,95974.03
2022-09-25T13:46:37.177Z,95977.06
2022-09-25T13:49:35.809Z,95971.44
2022-09-25T13:53:17.384Z,95976.22
2022-09-25T13:56:18.663Z,95986.56
2022-09-25T13:59:15.862Z,96000.78
2022-09-25T14:02:42.311Z,95997.91
2022-09-25T14:05:42.905Z,95998.31
2022-09-25T14:08:42.989Z,96005.03
2022-09-25T14:11:44.651Z,96005.28
2022-09-25T14:15:03.245Z,96002.59
2022-09-25T14:18:05.952Z,96004.16
2022-09-25T14:21:09.624Z,96002.38
2022-09-25T14:24:22.396Z,95995.25
2022-09-25T14:27:27.817Z,95986.53
2022-09-25T14:30:29.153Z,95986.41
2022-09-25T14:33:45.263Z,95990.47
2022-09-25T14:36:54.163Z,95988.69
2022-09-25T14:40:04.131Z,95988.59
2022-09-25T14:43:16.538Z,95990.41
2022-09-25T14:46:20.348Z,95990.50
2022-09-25T14:49:39.594Z,95979.44
2022-09-25T14:52:37.398Z,95975.69
2022-09-25T14:55:39.495Z,95980.22
2022-09-25T14:58:43.254Z,95987.50
2022-09-25T15:01:49.121Z,95986.38
2022-09-25T15:04:46.794Z,95988.72
2022-09-25T15:07:46.281Z,95987.44
2022-09-25T15:10:43.072Z,95987.28
2022-09-25T15:13:40.660Z,95986.81
2022-09-25T15:16:56.944Z,95986.38
2022-09-25T15:19:55.183Z,95993.09
2022-09-25T15:23:08.504Z,95989.69
2022-09-25T15:26:05.476Z,95983.53
2022-09-25T15:29:02.349Z,95979.94
2022-09-25T15:31:59.762Z,95986.09
2022-09-25T15:35:19.352Z,95978.09
2022-09-25T15:38:18.448Z,95976.94
2022-09-25T15:41:15.925Z,95980.56
2022-09-25T15:44:23.101Z,95971.91
2022-09-25T15:47:35.239Z,95979.25
2022-09-25T15:50:32.119Z,95965.34
2022-09-25T15:53:43.787Z,95973.50
2022-09-25T15:56:53.207Z,95976.84
2022-09-25T16:00:09.824Z,95986.19
2022-09-25T16:03:49.435Z,95980.97
2022-09-25T16:06:49.819Z,95974.63
2022-09-25T16:09:51.741Z,95975.28
2022-09-25T16:12:50.435Z,95986.81
2022-09-25T16:15:51.823Z,95981.28
2022-09-25T16:18:49.474Z,95979.91
2022-09-25T16:21:46.429Z,95983.50
2022-09-25T16:24:48.927Z,95982.06
2022-09-25T16:27:46.938Z,95983.66
2022-09-25T16:31:03.746Z,95990.66
2022-09-25T16:34:01.180Z,95983.28
2022-09-25T16:37:03.009Z,95989.25
2022-09-25T16:40:26.008Z,95978.81
2022-09-25T16:43:26.468Z,95986.25
2022-09-25T16:46:24.010Z,95982.44
2022-09-25T16:49:20.932Z,95995.28
2022-09-25T16:52:23.615Z,95988.47
2022-09-25T16:55:29.496Z,95987.34
2022-09-25T16:58:28.099Z,95986.75
2022-09-25T17:01:27.525Z,95980.50
2022-09-25T17:04:30.536Z,95979.22
2022-09-25T17:07:27.685Z,95983.00
2022-09-25T17:10:31.751Z,95975.34
2022-09-25T17:13:30.814Z,95970.97
2022-09-25T17:16:27.931Z,95969.72
2022-09-25T17:19:25.041Z,95966.09
2022-09-25T17:22:24.740Z,95964.38
2022-09-25T17:25:47.995Z,95964.41
2022-09-25T17:28:45.056Z,95967.25
2022-09-25T17:31:42.064Z,95971.03
2022-09-25T17:34:39.415Z,95978.16
2022-09-25T17:37:36.265Z,95979.88
2022-09-25T17:40:33.583Z,95993.78
2022-09-25T17:43:30.451Z,96001.50
2022-09-25T17:46:27.701Z,96005.91
2022-09-25T17:49:25.586Z,95999.44
2022-09-25T17:52:22.392Z,96004.81
2022-09-25T17:55:21.478Z,96004.34
2022-09-25T17:58:18.974Z,96010.03
2022-09-25T18:01:22.172Z,96007.50
2022-09-25T18:04:23.511Z,96012.88
2022-09-25T18:07:20.591Z,96023.09
2022-09-25T18:10:18.038Z,96024.66
2022-09-25T18:13:22.769Z,96021.19
2022-09-25T18:16:25.333Z,96015.84
2022-09-25T18:19:40.387Z,96016.94
2022-09-25T18:22:38.184Z,96009.69
2022-09-25T18:25:38.949Z,96003.84
2022-09-25T18:28:35.747Z,96011.59
2022-09-25T18:31:32.665Z,96013.66
2022-09-25T18:34:29.665Z,96007.66
2022-09-25T18:37:26.466Z,96009.38
2022-09-25T18:40:23.299Z,96020.59
2022-09-25T18:43:21.068Z,96027.97
2022-09-25T18:46:18.476Z,96019.94
2022-09-25T18:49:15.621Z,96030.19
2022-09-25T18:52:12.529Z,96026.06
2022-09-25T18:55:09.576Z,96027.81
2022-09-25T18:58:06.367Z,96030.81
2022-09-25T19:01:05.955Z,96034.09
2022-09-25T19:04:03.386Z,96029.84
2022-09-25T19:07:00.184Z,96030.31
2022-09-25T19:09:58.386Z,96030.31
2022-09-25T19:12:55.188Z,96027.66
2022-09-25T19:15:52.027Z,96030.94
2022-09-25T19:18:50.307Z,96032.69
2022-09-25T19:21:47.268Z,96031.72
2022-09-25T19:24:46.027Z,96022.13
2022-09-25T19:27:42.818Z,96027.66
2022-09-25T19:30:39.685Z,96029.84
2022-09-25T19:33:37.418Z,96022.13
2022-09-25T19:36:34.835Z,96021.34
2022-09-25T19:39:51.773Z,96028.91
2022-09-25T19:42:49.850Z,96024.19
2022-09-25T19:45:51.561Z,96035.16
2022-09-25T19:48:48.810Z,96032.66
2022-09-25T19:51:45.686Z,96027.31
2022-09-25T19:54:42.592Z,96024.78
2022-09-25T19:57:39.514Z,96021.19
2022-09-25T20:00:41.527Z,96030.47
2022-09-25T20:03:38.732Z,96031.69
2022-09-25T20:06:36.727Z,96020.53
2022-09-25T20:09:39.001Z,96021.47
2022-09-25T20:12:36.610Z,96022.72
2022-09-25T20:15:33.884Z,96008.09
2022-09-25T20:18:30.762Z,96018.81
2022-09-25T20:21:31.679Z,96013.28
2022-09-25T20:24:28.544Z,96004.03
2022-09-25T20:27:26.044Z,96002.59
2022-09-25T20:30:24.332Z,96004.34
2022-09-25T20:33:21.122Z,96009.19
2022-09-25T20:36:18.438Z,96010.28
2022-09-25T20:39:20.797Z,96008.88
2022-09-25T20:42:18.499Z,96008.25
2022-09-25T20:45:15.413Z,96008.09
2022-09-25T20:48:12.231Z,96012.84
2022-09-25T20:51:12.319Z,96007.03
2022-09-25T20:54:10.108Z,96002.44
2022-09-25T20:57:08.915Z,96003.56
2022-09-25T21:00:06.392Z,96006.38
2022-09-25T21:03:04.331Z,96004.81
2022-09-25T21:06:03.148Z,96001.66
2022-09-25T21:09:03.509Z,95999.47
2022-09-25T21:12:00.419Z,96004.81
2022-09-25T21:14:57.221Z,95996.78
2022-09-25T21:17:54.689Z,95997.88
2022-09-25T21:20:51.479Z,95999.59
2022-09-25T21:23:51.538Z,96003.06
2022-09-25T21:26:49.975Z,95999.75
2022-09-25T21:29:46.806Z,96006.22
2022-09-25T21:32:43.596Z,96002.91
2022-09-25T21:35:40.422Z,96007.31
2022-09-25T21:38:37.363Z,96010.44
2022-09-25T21:41:35.302Z,96007.91
2022-09-25T21:44:32.331Z,96007.75
2022-09-25T21:47:29.189Z,96003.03
2022-09-25T21:50:25.981Z,96004.00
2022-09-25T21:53:23.945Z,96001.63
2022-09-25T21:56:24.280Z,96003.84
2022-09-25T21:59:21.258Z,96002.88
2022-09-25T22:02:18.319Z,95992.03
2022-09-25T22:05:15.135Z,95986.84
2022-09-25T22:08:11.937Z,95986.53
2022-09-25T22:11:11.048Z,95980.56
2022-09-25T22:14:10.855Z,95979.75
2022-09-25T22:17:10.333Z,95985.72
2022-09-25T22:20:08.038Z,95984.47
2022-09-25T22:23:04.850Z,95977.72
2022-09-25T22:26:02.221Z,95977.22
2022-09-25T22:28:59.092Z,95984.94
2022-09-25T22:31:55.881Z,95966.06
2022-09-25T22:34:52.672Z,95959.31
2022-09-25T22:37:49.466Z,95949.38
2022-09-25T22:40:46.273Z,95951.72
2022-09-25T22:43:44.213Z,95955.81
2022-09-25T22:46:41.005Z,95952.06
2022-09-25T22:49:37.832Z,95943.13
2022-09-25T22:52:35.383Z,95934.91
2022-09-25T22:55:32.843Z,95935.09
2022-09-25T22:58:29.648Z,95949.84
2022-09-25T23:01:39.144Z,95947.81
2022-09-25T23:04:36.122Z,95943.59
2022-09-25T23:07:32.940Z,95947.50
2022-09-25T23:10:48.657Z,95946.88
2022-09-25T23:13:46.558Z,95942.44
2022-09-25T23:16:45.449Z,95951.91
2022-09-25T23:19:42.282Z,95948.91
2022-09-25T23:22:39.161Z,95947.94
2022-09-25T23:25:35.983Z,95939.00
2022-09-25T23:28:35.272Z,95941.53
2022-09-25T23:31:33.689Z,95933.19
2022-09-25T23:34:30.465Z,95936.63
2022-09-25T23:37:28.781Z,95941.03
2022-09-25T23:40:26.525Z,95937.56
2022-09-25T23:43:23.369Z,95937.13
2022-09-25T23:46:23.035Z,95932.84
2022-09-25T23:49:19.947Z,95929.38
2022-09-25T23:52:16.760Z,95921.22
2022-09-25T23:55:14.182Z,95930.03
2022-09-25T23:58:11.430Z,95922.44
